createdAt,value
2022-10-18T00:00:30.491Z,14.43
2022-10-18T00:01:31.915Z,14.42
2022-10-18T00:02:33.329Z,14.30
2022-10-18T00:03:35.567Z,14.17
2022-10-18T00:04:37.148Z,14.07
2022-10-18T00:05:38.595Z,14.08
2022-10-18T00:06:43.373Z,14.16
2022-10-18T00:07:45.128Z,14.15
2022-10-18T00:08:46.590Z,14.10
2022-10-18T00:09:48.003Z,14.12
2022-10-18T00:10:49.678Z,14.18
2022-10-18T00:11:51.080Z,14.16
2022-10-18T00:12:52.726Z,14.19
2022-10-18T00:13:56.397Z,14.23
2022-10-18T00:14:57.803Z,14.26
2022-10-18T00:16:01.033Z,14.32
2022-10-18T00:17:02.564Z,14.33
2022-10-18T00:18:04.164Z,14.39
2022-10-18T00:19:05.615Z,14.43
2022-10-18T00:20:07.703Z,14.43
2022-10-18T00:21:12.981Z,14.51
2022-10-18T00:22:14.407Z,14.57
2022-10-18T00:23:15.808Z,14.57
2022-10-18T00:24:17.205Z,14.61
2022-10-18T00:25:18.720Z,14.62
2022-10-18T00:26:23.757Z,14.67
2022-10-18T00:27:25.238Z,14.72
2022-10-18T00:28:27.707Z,14.78
2022-10-18T00:29:29.176Z,14.81
2022-10-18T00:30:30.522Z,14.73
2022-10-18T00:31:34.950Z,14.66
2022-10-18T00:32:41.530Z,14.57
2022-10-18T00:33:45.236Z,14.42
2022-10-18T00:34:46.735Z,14.33
2022-10-18T00:35:48.164Z,14.28
2022-10-18T00:36:49.487Z,14.29
2022-10-18T00:37:50.887Z,14.26
2022-10-18T00:38:52.627Z,14.20
2022-10-18T00:39:54.053Z,14.01
2022-10-18T00:40:55.392Z,13.85
2022-10-18T00:41:56.820Z,13.61
2022-10-18T00:42:58.213Z,13.48
2022-10-18T00:44:01.299Z,13.45
2022-10-18T00:45:21.406Z,13.27
2022-10-18T00:46:23.908Z,13.11
2022-10-18T00:47:26.230Z,12.99
2022-10-18T00:48:27.862Z,12.90
2022-10-18T00:49:36.426Z,12.87
2022-10-18T00:50:38.525Z,12.86
2022-10-18T00:51:44.776Z,12.84
2022-10-18T00:52:53.076Z,12.86
2022-10-18T00:53:54.565Z,12.89
2022-10-18T00:54:57.488Z,12.99
2022-10-18T00:55:59.076Z,13.07
2022-10-18T00:57:01.293Z,13.12
2022-10-18T00:58:03.911Z,13.16
2022-10-18T00:59:05.731Z,13.24
2022-10-18T01:00:08.531Z,13.23
2022-10-18T01:01:10.247Z,13.22
2022-10-18T01:02:12.338Z,13.18
2022-10-18T01:03:13.946Z,13.14
2022-10-18T01:04:17.420Z,13.04
2022-10-18T01:05:19.898Z,12.99
2022-10-18T01:06:21.627Z,12.91
2022-10-18T01:07:34.087Z,12.92
2022-10-18T01:08:53.240Z,12.84
2022-10-18T01:10:24.891Z,12.80
2022-10-18T01:11:44.491Z,12.74
2022-10-18T01:13:04.665Z,12.83
2022-10-18T01:14:24.540Z,12.88
2022-10-18T01:15:35.175Z,12.89
2022-10-18T01:16:48.001Z,12.83
2022-10-18T01:17:56.192Z,12.83
2022-10-18T01:19:35.690Z,12.82
2022-10-18T01:20:52.114Z,12.89
2022-10-18T01:22:00.192Z,12.87
2022-10-18T01:23:07.874Z,12.83
2022-10-18T01:24:17.559Z,12.63
2022-10-18T01:25:51.432Z,12.53
2022-10-18T01:27:10.964Z,12.44
2022-10-18T01:28:35.292Z,12.41
2022-10-18T01:29:58.556Z,12.49
2022-10-18T01:31:46.427Z,12.40
2022-10-18T01:32:54.347Z,12.36
2022-10-18T01:34:04.433Z,12.35
2022-10-18T01:35:12.478Z,12.36
2022-10-18T01:36:29.362Z,12.41
2022-10-18T01:37:32.861Z,12.54
2022-10-18T01:38:36.547Z,12.55
2022-10-18T01:39:41.733Z,12.59
2022-10-18T01:40:45.617Z,12.55
2022-10-18T01:41:50.517Z,12.41
2022-10-18T01:42:52.041Z,12.27
2022-10-18T01:43:59.357Z,12.08
2022-10-18T01:45:03.496Z,11.98
2022-10-18T01:46:05.310Z,11.94
2022-10-18T01:47:09.467Z,11.95
2022-10-18T01:48:12.807Z,11.87
2022-10-18T01:49:14.251Z,11.81
2022-10-18T01:50:15.934Z,11.76
2022-10-18T01:51:25.540Z,11.75
2022-10-18T01:52:27.021Z,11.72
2022-10-18T01:53:32.050Z,11.75
2022-10-18T01:54:37.438Z,11.76
2022-10-18T01:55:49.912Z,11.80
2022-10-18T01:56:57.120Z,11.83
2022-10-18T01:58:12.312Z,11.79
2022-10-18T01:59:28.279Z,11.85
2022-10-18T02:00:41.710Z,11.92
2022-10-18T02:01:51.939Z,11.98
2022-10-18T02:02:56.619Z,12.03
2022-10-18T02:04:07.044Z,11.84
2022-10-18T02:05:30.116Z,11.78
2022-10-18T02:06:38.232Z,11.72
2022-10-18T02:07:51.889Z,11.74
2022-10-18T02:09:09.497Z,11.61
2022-10-18T02:10:18.324Z,11.53
2022-10-18T02:11:20.384Z,11.44
2022-10-18T02:12:23.325Z,11.41
2022-10-18T02:13:29.523Z,11.35
2022-10-18T02:14:32.864Z,11.37
2022-10-18T02:15:39.065Z,11.44
2022-10-18T02:16:52.104Z,11.54
2022-10-18T02:17:55.768Z,11.60
2022-10-18T02:19:14.425Z,11.62
2022-10-18T02:20:21.132Z,11.72
2022-10-18T02:21:24.608Z,11.70
2022-10-18T02:22:31.080Z,11.78
2022-10-18T02:23:34.607Z,11.87
2022-10-18T02:24:39.850Z,11.91
2022-10-18T02:25:41.344Z,11.97
2022-10-18T02:26:43.276Z,12.01
2022-10-18T02:27:44.744Z,12.01
2022-10-18T02:28:46.294Z,11.96
2022-10-18T02:29:48.547Z,11.92
2022-10-18T02:31:02.318Z,11.83
2022-10-18T02:32:15.737Z,11.79
2022-10-18T02:33:27.994Z,11.81
2022-10-18T02:34:34.345Z,11.79
2022-10-18T02:35:41.984Z,11.80
2022-10-18T02:36:47.681Z,11.73
2022-10-18T02:37:50.719Z,11.74
2022-10-18T02:39:03.663Z,11.76
2022-10-18T02:40:08.492Z,11.73
2022-10-18T02:41:09.951Z,11.73
2022-10-18T02:42:12.047Z,11.72
2022-10-18T02:43:13.988Z,11.64
2022-10-18T02:44:15.436Z,11.64
2022-10-18T02:45:17.253Z,11.62
2022-10-18T02:46:19.759Z,11.54
2022-10-18T02:47:21.205Z,11.51
2022-10-18T02:48:22.552Z,11.46
2022-10-18T02:49:24.075Z,11.41
2022-10-18T02:50:25.549Z,11.42
2022-10-18T02:51:27.004Z,11.42
2022-10-18T02:52:28.437Z,11.46
2022-10-18T02:53:29.863Z,11.47
2022-10-18T02:54:31.198Z,11.44
2022-10-18T02:55:32.631Z,11.46
2022-10-18T02:56:35.245Z,11.50
2022-10-18T02:57:37.471Z,11.53
2022-10-18T02:58:38.922Z,11.60
2022-10-18T02:59:40.355Z,11.64
2022-10-18T03:00:41.812Z,11.72
2022-10-18T03:01:43.335Z,11.68
2022-10-18T03:02:44.764Z,11.70
2022-10-18T03:03:46.243Z,11.76
2022-10-18T03:04:47.635Z,11.72
2022-10-18T03:05:49.493Z,11.82
2022-10-18T03:06:50.904Z,11.79
2022-10-18T03:07:52.225Z,11.76
2022-10-18T03:08:54.093Z,11.81
2022-10-18T03:09:55.538Z,11.90
2022-10-18T03:10:56.976Z,11.98
2022-10-18T03:11:58.318Z,12.06
2022-10-18T03:12:59.728Z,12.15
2022-10-18T03:14:01.069Z,12.19
2022-10-18T03:15:02.678Z,12.19
2022-10-18T03:16:04.271Z,12.23
2022-10-18T03:17:05.700Z,12.22
2022-10-18T03:18:07.024Z,12.16
2022-10-18T03:19:08.483Z,12.03
2022-10-18T03:20:10.529Z,12.00
2022-10-18T03:21:12.099Z,12.00
2022-10-18T03:22:13.512Z,11.95
2022-10-18T03:23:14.847Z,11.91
2022-10-18T03:24:16.341Z,11.95
2022-10-18T03:25:17.810Z,11.93
2022-10-18T03:26:19.234Z,11.95
2022-10-18T03:27:20.592Z,12.00
2022-10-18T03:28:22.003Z,12.01
2022-10-18T03:29:23.431Z,12.05
2022-10-18T03:30:24.944Z,12.06
2022-10-18T03:31:26.397Z,11.98
2022-10-18T03:32:27.868Z,11.96
2022-10-18T03:33:29.690Z,11.96
2022-10-18T03:34:31.102Z,11.94
2022-10-18T03:35:32.514Z,11.92
2022-10-18T03:36:33.904Z,11.91
2022-10-18T03:37:35.936Z,11.88
2022-10-18T03:38:37.675Z,11.84
2022-10-18T03:39:39.100Z,11.79
2022-10-18T03:40:40.562Z,11.81
2022-10-18T03:41:41.881Z,11.83
2022-10-18T03:42:43.439Z,11.87
2022-10-18T03:43:44.857Z,11.97
2022-10-18T03:44:46.202Z,12.04
2022-10-18T03:45:47.645Z,12.06
2022-10-18T03:46:49.054Z,12.11
2022-10-18T03:47:50.377Z,12.18
2022-10-18T03:48:51.852Z,12.27
2022-10-18T03:49:56.290Z,12.31
2022-10-18T03:50:58.794Z,12.37
2022-10-18T03:52:00.142Z,12.46
2022-10-18T03:53:01.558Z,12.52
2022-10-18T03:54:02.973Z,12.54
2022-10-18T03:55:04.908Z,12.55
2022-10-18T03:56:06.636Z,12.56
2022-10-18T03:57:08.172Z,12.59
2022-10-18T03:58:09.840Z,12.61
2022-10-18T03:59:11.285Z,12.53
2022-10-18T04:00:13.034Z,12.55
2022-10-18T04:01:15.546Z,12.57
2022-10-18T04:02:17.011Z,12.58
2022-10-18T04:03:18.933Z,12.63
2022-10-18T04:04:20.374Z,12.64
2022-10-18T04:05:21.983Z,12.64
2022-10-18T04:06:23.386Z,12.63
2022-10-18T04:07:24.758Z,12.68
2022-10-18T04:08:26.496Z,12.69
2022-10-18T04:09:27.930Z,12.70
2022-10-18T04:10:29.276Z,12.74
2022-10-18T04:11:30.866Z,12.78
2022-10-18T04:12:32.608Z,12.77
2022-10-18T04:13:34.929Z,12.78
2022-10-18T04:14:36.411Z,12.81
2022-10-18T04:15:37.870Z,12.75
2022-10-18T04:16:39.290Z,12.64
2022-10-18T04:17:40.672Z,12.57
2022-10-18T04:18:42.308Z,12.55
2022-10-18T04:19:43.738Z,12.56
2022-10-18T04:20:45.158Z,12.55
2022-10-18T04:21:46.633Z,12.47
2022-10-18T04:22:48.448Z,12.44
2022-10-18T04:23:50.898Z,12.49
2022-10-18T04:24:52.365Z,12.56
2022-10-18T04:25:53.698Z,12.63
2022-10-18T04:26:55.124Z,12.64
2022-10-18T04:27:56.456Z,12.65
2022-10-18T04:28:58.017Z,12.68
2022-10-18T04:29:59.491Z,12.68
2022-10-18T04:31:00.852Z,12.67
2022-10-18T04:32:02.330Z,12.59
2022-10-18T04:33:03.810Z,12.50
2022-10-18T04:34:05.279Z,12.44
2022-10-18T04:35:07.375Z,12.48
2022-10-18T04:36:08.809Z,12.47
2022-10-18T04:37:10.221Z,12.44
2022-10-18T04:38:11.600Z,12.41
2022-10-18T04:39:13.046Z,12.37
2022-10-18T04:40:14.424Z,12.37
2022-10-18T04:41:15.832Z,12.36
2022-10-18T04:42:17.171Z,12.30
2022-10-18T04:43:18.679Z,12.31
2022-10-18T04:44:20.111Z,12.33
2022-10-18T04:45:21.531Z,12.42
2022-10-18T04:46:22.863Z,12.39
2022-10-18T04:47:24.296Z,12.44
2022-10-18T04:48:25.759Z,12.43
2022-10-18T04:49:27.198Z,12.46
2022-10-18T04:50:28.817Z,12.46
2022-10-18T04:51:31.693Z,12.52
2022-10-18T04:52:33.153Z,12.55
2022-10-18T04:53:34.490Z,12.56
2022-10-18T04:54:35.936Z,12.56
2022-10-18T04:55:37.285Z,12.62
2022-10-18T04:56:38.733Z,12.61
2022-10-18T04:57:40.081Z,12.58
2022-10-18T04:58:41.506Z,12.54
2022-10-18T04:59:42.898Z,12.51
2022-10-18T05:00:44.377Z,12.56
2022-10-18T05:01:45.882Z,12.63
2022-10-18T05:02:47.443Z,12.66
2022-10-18T05:03:52.537Z,12.70
2022-10-18T05:04:53.961Z,12.72
2022-10-18T05:06:01.825Z,12.67
2022-10-18T05:07:04.781Z,12.64
2022-10-18T05:08:07.047Z,12.66
2022-10-18T05:09:08.472Z,12.62
2022-10-18T05:10:09.870Z,12.68
2022-10-18T05:11:11.362Z,12.73
2022-10-18T05:12:12.817Z,12.79
2022-10-18T05:13:14.146Z,12.84
2022-10-18T05:14:15.672Z,12.85
2022-10-18T05:15:17.206Z,12.87
2022-10-18T05:16:18.691Z,12.90
2022-10-18T05:17:20.134Z,12.90
2022-10-18T05:18:21.509Z,12.92
2022-10-18T05:19:22.936Z,12.90
2022-10-18T05:20:24.366Z,12.87
2022-10-18T05:21:25.700Z,12.83
2022-10-18T05:22:27.182Z,12.72
2022-10-18T05:23:28.515Z,12.70
2022-10-18T05:24:29.922Z,12.71
2022-10-18T05:25:31.278Z,12.77
2022-10-18T05:26:32.886Z,12.72
2022-10-18T05:27:34.478Z,12.69
2022-10-18T05:28:40.427Z,12.68
2022-10-18T05:29:42.321Z,12.66
2022-10-18T05:30:43.653Z,12.66
2022-10-18T05:31:45.116Z,12.71
2022-10-18T05:32:46.428Z,12.77
2022-10-18T05:33:47.965Z,12.81
2022-10-18T05:34:49.413Z,12.89
2022-10-18T05:35:50.853Z,12.90
2022-10-18T05:36:52.192Z,13.04
2022-10-18T05:37:53.603Z,13.21
2022-10-18T05:38:54.950Z,13.40
2022-10-18T05:39:56.378Z,13.60
2022-10-18T05:40:58.350Z,13.78
2022-10-18T05:41:59.697Z,13.93
2022-10-18T05:43:01.111Z,14.15
2022-10-18T05:44:03.588Z,14.31
2022-10-18T05:45:05.520Z,14.44
2022-10-18T05:46:11.827Z,14.61
2022-10-18T05:47:16.406Z,14.86
2022-10-18T05:48:18.499Z,15.15
2022-10-18T05:49:20.008Z,15.37
2022-10-18T05:50:21.619Z,15.55
2022-10-18T05:51:23.070Z,15.73
2022-10-18T05:52:24.509Z,15.93
2022-10-18T05:53:41.920Z,16.17
2022-10-18T05:54:43.370Z,16.49
2022-10-18T05:55:44.899Z,16.71
2022-10-18T05:56:46.462Z,16.83
2022-10-18T05:57:51.386Z,16.94
2022-10-18T05:58:52.838Z,17.05
2022-10-18T05:59:54.252Z,17.20
2022-10-18T06:00:58.803Z,17.31
2022-10-18T06:02:00.292Z,17.40
2022-10-18T06:03:01.716Z,17.45
2022-10-18T06:04:03.211Z,17.40
2022-10-18T06:05:04.899Z,17.09
2022-10-18T06:06:11.553Z,16.79
2022-10-18T06:07:12.999Z,16.52
2022-10-18T06:08:14.409Z,16.43
2022-10-18T06:09:15.890Z,16.53
2022-10-18T06:10:17.367Z,16.70
2022-10-18T06:11:20.229Z,16.84
2022-10-18T06:12:21.655Z,16.97
2022-10-18T06:13:23.451Z,17.07
2022-10-18T06:14:24.879Z,17.14
2022-10-18T06:15:26.313Z,17.23
2022-10-18T06:16:32.272Z,17.26
2022-10-18T06:17:34.314Z,17.26
2022-10-18T06:18:36.378Z,17.31
2022-10-18T06:19:37.809Z,17.36
2022-10-18T06:20:39.288Z,17.45
2022-10-18T06:21:40.679Z,17.54
2022-10-18T06:22:42.116Z,17.58
2022-10-18T06:23:43.732Z,17.59
2022-10-18T06:24:45.145Z,17.65
2022-10-18T06:25:46.571Z,17.68
2022-10-18T06:26:48.522Z,17.70
2022-10-18T06:27:50.034Z,17.76
2022-10-18T06:28:51.771Z,17.71
2022-10-18T06:29:53.222Z,17.56
2022-10-18T06:30:54.772Z,17.35
2022-10-18T06:31:56.168Z,17.05
2022-10-18T06:33:01.133Z,16.85
2022-10-18T06:34:02.565Z,16.77
2022-10-18T06:35:04.280Z,16.73
2022-10-18T06:36:08.119Z,16.80
2022-10-18T06:37:09.536Z,16.90
2022-10-18T06:38:10.949Z,16.92
2022-10-18T06:39:12.410Z,16.91
2022-10-18T06:40:13.852Z,16.93
2022-10-18T06:41:15.316Z,17.07
2022-10-18T06:42:19.087Z,17.16
2022-10-18T06:43:23.873Z,17.24
2022-10-18T06:44:25.359Z,17.38
2022-10-18T06:45:26.775Z,17.54
2022-10-18T06:46:28.264Z,17.73
2022-10-18T06:47:29.695Z,17.97
2022-10-18T06:48:31.734Z,18.23
2022-10-18T06:49:33.180Z,18.32
2022-10-18T06:50:34.610Z,18.54
2022-10-18T06:51:36.535Z,18.70
2022-10-18T06:52:38.015Z,18.79
2022-10-18T06:53:43.902Z,18.82
2022-10-18T06:54:50.100Z,18.82
2022-10-18T06:55:51.612Z,18.86
2022-10-18T06:56:56.248Z,18.92
2022-10-18T06:57:57.678Z,18.99
2022-10-18T07:00:05.793Z,19.10
2022-10-18T07:01:13.337Z,19.24
2022-10-18T07:02:16.152Z,19.42
2022-10-18T07:03:17.576Z,19.58
2022-10-18T07:04:18.985Z,19.64
2022-10-18T07:05:20.465Z,19.83
2022-10-18T07:06:23.325Z,20.16
2022-10-18T07:07:24.739Z,20.43
2022-10-18T07:08:26.155Z,20.68
2022-10-18T07:09:27.662Z,20.74
2022-10-18T07:10:29.085Z,20.83
2022-10-18T07:11:30.578Z,20.86
2022-10-18T07:12:32.901Z,21.09
2022-10-18T07:13:34.757Z,21.38
2022-10-18T07:14:36.172Z,21.47
2022-10-18T07:15:37.612Z,21.41
2022-10-18T07:16:39.041Z,21.31
2022-10-18T07:17:40.549Z,21.45
2022-10-18T07:18:45.586Z,21.51
2022-10-18T07:19:47.029Z,21.66
2022-10-18T07:20:48.443Z,21.95
2022-10-18T07:21:49.844Z,22.23
2022-10-18T07:22:55.967Z,22.42
2022-10-18T07:23:57.536Z,22.73
2022-10-18T07:24:58.948Z,22.87
2022-10-18T07:26:00.994Z,22.97
2022-10-18T07:27:02.582Z,23.14
2022-10-18T07:28:04.093Z,23.45
2022-10-18T07:29:09.285Z,23.71
2022-10-18T07:30:11.382Z,23.85
2022-10-18T07:31:13.352Z,24.31
2022-10-18T07:32:14.789Z,24.60
2022-10-18T07:33:16.202Z,24.88
2022-10-18T07:34:17.630Z,25.14
2022-10-18T07:35:19.093Z,25.21
2022-10-18T07:36:21.019Z,25.26
2022-10-18T07:37:25.470Z,25.40
2022-10-18T07:38:29.704Z,25.53
2022-10-18T07:39:31.115Z,25.58
2022-10-18T07:40:32.580Z,25.68
2022-10-18T07:41:34.062Z,25.65
2022-10-18T07:42:35.787Z,25.91
2022-10-18T07:43:37.192Z,26.08
2022-10-18T07:44:39.395Z,26.06
2022-10-18T07:45:40.813Z,25.93
2022-10-18T07:46:42.241Z,25.58
2022-10-18T07:47:43.652Z,25.24
2022-10-18T07:48:45.101Z,25.05
2022-10-18T07:49:46.507Z,24.90
2022-10-18T07:50:48.049Z,24.94
2022-10-18T07:51:49.482Z,24.90
2022-10-18T07:52:50.892Z,24.77
2022-10-18T07:53:52.295Z,24.40
2022-10-18T07:54:53.718Z,24.14
2022-10-18T07:55:59.470Z,24.10
2022-10-18T07:57:00.895Z,23.94
2022-10-18T07:58:02.323Z,23.66
2022-10-18T07:59:03.796Z,23.60
2022-10-18T08:00:05.795Z,23.41
2022-10-18T08:01:14.420Z,23.19
2022-10-18T08:02:15.912Z,23.10
2022-10-18T08:03:17.328Z,23.07
2022-10-18T08:04:18.792Z,22.78
2022-10-18T08:05:20.244Z,22.60
2022-10-18T08:06:23.042Z,22.41
2022-10-18T08:07:24.434Z,22.42
2022-10-18T08:08:26.763Z,22.28
2022-10-18T08:09:28.323Z,22.10
2022-10-18T08:10:29.736Z,21.96
2022-10-18T08:11:31.626Z,21.69
2022-10-18T08:12:33.018Z,21.46
2022-10-18T08:13:34.533Z,21.22
2022-10-18T08:14:35.947Z,21.10
2022-10-18T08:15:37.383Z,21.01
2022-10-18T08:16:38.864Z,20.96
2022-10-18T08:17:40.266Z,20.88
2022-10-18T08:18:42.308Z,20.84
2022-10-18T08:19:52.889Z,20.73
2022-10-18T08:21:08.159Z,20.73
2022-10-18T08:22:09.590Z,20.74
2022-10-18T08:23:11.428Z,20.60
2022-10-18T08:24:12.836Z,20.53
2022-10-18T08:25:14.271Z,20.49
2022-10-18T08:26:18.996Z,20.44
2022-10-18T08:27:20.423Z,20.40
2022-10-18T08:28:22.210Z,20.35
2022-10-18T08:29:26.843Z,20.31
2022-10-18T08:30:30.613Z,20.09
2022-10-18T08:31:32.052Z,19.87
2022-10-18T08:32:33.818Z,19.91
2022-10-18T08:33:35.575Z,20.03
2022-10-18T08:35:43.315Z,20.03
2022-10-18T08:36:44.732Z,19.91
2022-10-18T08:37:46.192Z,19.94
2022-10-18T08:38:47.724Z,19.87
2022-10-18T08:39:49.117Z,19.83
2022-10-18T08:40:50.836Z,19.72
2022-10-18T08:42:19.947Z,19.79
2022-10-18T08:43:47.041Z,19.75
2022-10-18T08:44:50.664Z,19.78
2022-10-18T08:45:54.294Z,19.71
2022-10-18T08:47:02.982Z,19.71
2022-10-18T08:48:06.692Z,19.80
2022-10-18T08:49:16.025Z,19.82
2022-10-18T08:50:25.002Z,19.81
2022-10-18T08:51:42.383Z,19.91
2022-10-18T08:53:37.743Z,19.97
2022-10-18T08:54:55.792Z,20.02
2022-10-18T08:56:03.545Z,20.12
2022-10-18T08:57:13.421Z,20.16
2022-10-18T08:58:20.183Z,20.30
2022-10-18T08:59:24.729Z,20.40
2022-10-18T09:00:31.880Z,20.30
2022-10-18T09:03:03.977Z,20.22
2022-10-18T09:04:11.372Z,20.22
2022-10-18T09:05:31.677Z,20.21
2022-10-18T09:06:44.769Z,20.09
2022-10-18T09:07:53.074Z,20.11
2022-10-18T09:09:25.589Z,20.17
2022-10-18T09:12:42.341Z,20.15
2022-10-18T09:14:18.040Z,20.19
2022-10-18T09:15:33.507Z,20.31
2022-10-18T09:16:56.502Z,20.38
2022-10-18T09:18:23.261Z,20.28
2022-10-18T09:19:52.768Z,20.32
2022-10-18T09:21:03.291Z,20.34
2022-10-18T09:22:13.545Z,20.29
2022-10-18T09:23:48.813Z,20.25
2022-10-18T09:25:05.643Z,20.12
2022-10-18T09:26:12.442Z,20.12
2022-10-18T09:27:28.293Z,20.22
2022-10-18T09:28:42.760Z,20.21
2022-10-18T09:30:15.341Z,20.28
2022-10-18T09:31:48.276Z,20.30
2022-10-18T09:33:25.154Z,20.17
2022-10-18T09:34:33.639Z,20.21
2022-10-18T09:35:47.692Z,20.16
2022-10-18T09:36:51.771Z,20.11
2022-10-18T09:38:00.848Z,20.18
2022-10-18T09:39:08.663Z,20.22
2022-10-18T09:40:24.580Z,20.36
2022-10-18T09:41:30.173Z,20.45
2022-10-18T09:42:37.733Z,20.54
2022-10-18T09:43:52.558Z,20.60
2022-10-18T09:45:35.125Z,20.54
2022-10-18T09:46:38.976Z,20.53
2022-10-18T09:47:53.033Z,20.61
2022-10-18T09:49:05.826Z,20.63
2022-10-18T09:50:52.063Z,20.46
2022-10-18T09:51:54.226Z,20.43
2022-10-18T09:53:20.068Z,20.44
2022-10-18T09:54:49.227Z,20.47
2022-10-18T09:56:09.334Z,20.49
2022-10-18T09:57:17.826Z,20.56
2022-10-18T09:58:22.740Z,20.52
2022-10-18T09:59:43.215Z,20.45
2022-10-18T10:00:50.899Z,20.55
2022-10-18T10:01:52.346Z,20.65
2022-10-18T10:02:54.150Z,20.70
2022-10-18T10:03:56.989Z,20.68
2022-10-18T10:04:58.507Z,20.59
2022-10-18T10:06:16.485Z,20.62
2022-10-18T10:07:21.101Z,20.45
2022-10-18T10:08:33.278Z,20.36
2022-10-18T10:09:44.627Z,20.36
2022-10-18T10:10:47.142Z,20.49
2022-10-18T10:11:50.717Z,20.45
2022-10-18T10:13:16.864Z,20.58
2022-10-18T10:14:24.262Z,20.65
2022-10-18T10:15:28.297Z,20.76
2022-10-18T10:16:32.933Z,20.66
2022-10-18T10:17:34.965Z,20.69
2022-10-18T10:18:38.990Z,20.70
2022-10-18T10:20:02.164Z,20.75
2022-10-18T10:21:07.146Z,20.74
2022-10-18T10:22:14.213Z,20.79
2022-10-18T10:23:24.806Z,20.81
2022-10-18T10:24:49.374Z,20.76
2022-10-18T10:25:53.701Z,20.72
2022-10-18T10:27:00.177Z,20.73
2022-10-18T10:28:12.046Z,20.69
2022-10-18T10:29:52.674Z,20.68
2022-10-18T10:30:54.543Z,20.81
2022-10-18T10:32:04.013Z,20.85
2022-10-18T10:33:06.392Z,20.88
2022-10-18T10:34:13.666Z,20.88
2022-10-18T10:35:35.310Z,20.97
2022-10-18T10:36:51.707Z,20.94
2022-10-18T10:37:54.360Z,20.98
2022-10-18T10:39:13.086Z,20.89
2022-10-18T10:40:19.275Z,20.91
2022-10-18T10:41:23.709Z,20.91
2022-10-18T10:42:25.184Z,20.96
2022-10-18T10:43:43.312Z,21.00
2022-10-18T10:44:55.221Z,21.12
2022-10-18T10:46:04.953Z,21.13
2022-10-18T10:47:06.635Z,21.06
2022-10-18T10:48:15.127Z,21.03
2022-10-18T10:50:54.398Z,21.08
2022-10-18T10:52:09.000Z,21.10
2022-10-18T10:53:29.265Z,21.11
2022-10-18T10:54:33.495Z,21.11
2022-10-18T10:55:35.830Z,21.15
2022-10-18T10:56:59.447Z,21.18
2022-10-18T10:58:00.965Z,21.11
2022-10-18T10:59:15.551Z,21.15
2022-10-18T11:00:36.202Z,21.06
2022-10-18T11:01:37.616Z,20.98
2022-10-18T11:02:39.509Z,20.97
2022-10-18T11:03:46.897Z,20.98
2022-10-18T11:04:53.353Z,20.89
2022-10-18T11:05:55.682Z,20.95
2022-10-18T11:07:09.005Z,20.95
2022-10-18T11:08:13.047Z,20.96
2022-10-18T11:09:29.032Z,20.92
2022-10-18T11:10:44.335Z,20.97
2022-10-18T11:12:03.314Z,21.02
2022-10-18T11:13:42.296Z,20.99
2022-10-18T11:14:49.747Z,21.07
2022-10-18T11:15:59.383Z,21.05
2022-10-18T11:17:22.810Z,21.01
2022-10-18T11:18:30.263Z,21.08
2022-10-18T11:19:42.711Z,21.04
2022-10-18T11:20:58.127Z,20.90
2022-10-18T11:22:04.476Z,20.91
2022-10-18T11:23:08.142Z,20.97
2022-10-18T11:24:15.088Z,20.97
2022-10-18T11:25:17.251Z,21.05
2022-10-18T11:26:48.912Z,21.14
2022-10-18T11:28:05.929Z,21.10
2022-10-18T11:29:28.180Z,21.02
2022-10-18T11:31:12.688Z,20.98
2022-10-18T11:32:31.297Z,20.90
2022-10-18T11:34:08.740Z,20.99
2022-10-18T11:35:50.992Z,20.88
2022-10-18T11:37:27.164Z,20.80
2022-10-18T11:38:37.236Z,20.85
2022-10-18T11:39:54.516Z,20.91
2022-10-18T11:41:23.887Z,20.95
2022-10-18T11:42:55.585Z,20.95
2022-10-18T11:44:03.689Z,21.02
2022-10-18T11:45:43.865Z,21.02
2022-10-18T11:46:48.849Z,20.94
2022-10-18T11:47:55.872Z,20.88
2022-10-18T11:49:22.564Z,20.85
2022-10-18T11:50:34.831Z,20.88
2022-10-18T11:52:09.134Z,20.88
2022-10-18T11:53:22.940Z,20.89
2022-10-18T11:54:58.467Z,20.97
2022-10-18T11:56:17.884Z,20.96
2022-10-18T11:57:50.046Z,20.99
2022-10-18T11:59:27.600Z,21.04
2022-10-18T12:00:43.094Z,21.06
2022-10-18T12:02:03.659Z,21.05
2022-10-18T12:03:14.245Z,21.00
2022-10-18T12:04:24.942Z,20.91
2022-10-18T12:05:27.269Z,20.94
2022-10-18T12:06:34.586Z,20.84
2022-10-18T12:07:51.676Z,20.80
2022-10-18T12:08:58.248Z,20.79
2022-10-18T12:10:01.262Z,20.86
2022-10-18T12:11:11.416Z,20.91
2022-10-18T12:12:19.330Z,20.91
2022-10-18T12:13:48.181Z,20.88
2022-10-18T12:14:54.634Z,20.91
2022-10-18T12:15:56.549Z,20.91
2022-10-18T12:17:35.936Z,20.88
2022-10-18T12:18:26.263Z,20.87
2022-10-18T12:19:29.900Z,20.88
2022-10-18T12:20:35.115Z,20.98
2022-10-18T12:21:37.034Z,20.96
2022-10-18T12:22:44.694Z,20.94
2022-10-18T12:23:54.445Z,20.93
2022-10-18T12:24:55.863Z,20.88
2022-10-18T12:26:06.396Z,20.92
2022-10-18T12:27:13.079Z,20.91
2022-10-18T12:28:24.692Z,20.91
2022-10-18T12:29:34.727Z,20.90
2022-10-18T12:31:01.050Z,20.95
2022-10-18T12:32:08.831Z,20.96
2022-10-18T12:33:28.578Z,20.94
2022-10-18T12:34:40.775Z,20.99
2022-10-18T12:36:16.495Z,21.01
2022-10-18T12:37:34.679Z,21.04
2022-10-18T12:38:40.657Z,21.00
2022-10-18T12:41:21.935Z,21.04
2022-10-18T12:42:27.074Z,21.00
2022-10-18T12:43:31.229Z,20.96
2022-10-18T12:44:34.798Z,20.98
2022-10-18T12:45:48.993Z,20.95
2022-10-18T12:46:57.808Z,20.88
2022-10-18T12:48:06.379Z,20.86
2022-10-18T12:49:12.738Z,20.82
2022-10-18T12:50:39.065Z,20.73
2022-10-18T12:51:52.366Z,20.74
2022-10-18T12:53:11.964Z,20.74
2022-10-18T12:54:18.568Z,20.78
2022-10-18T12:55:19.924Z,20.77
2022-10-18T12:56:41.509Z,20.74
2022-10-18T12:57:52.048Z,20.71
2022-10-18T12:59:16.289Z,20.68
2022-10-18T13:00:46.805Z,20.67
2022-10-18T13:01:51.368Z,20.64
2022-10-18T13:03:15.547Z,20.65
2022-10-18T13:04:28.969Z,20.63
2022-10-18T13:05:53.290Z,20.62
2022-10-18T13:06:57.753Z,20.59
2022-10-18T13:08:27.882Z,20.54
2022-10-18T13:09:38.722Z,20.55
2022-10-18T13:10:41.181Z,20.60
2022-10-18T13:11:42.743Z,20.63
2022-10-18T13:13:24.458Z,20.69
2022-10-18T13:14:44.075Z,20.69
2022-10-18T13:16:21.260Z,20.68
2022-10-18T13:17:41.502Z,20.61
2022-10-18T13:19:04.612Z,20.62
2022-10-18T13:20:27.322Z,20.47
2022-10-18T13:21:52.583Z,20.45
2022-10-18T13:22:53.957Z,20.41
2022-10-18T13:24:01.197Z,20.38
2022-10-18T13:25:29.725Z,20.35
2022-10-18T13:26:40.490Z,20.31
2022-10-18T13:28:05.168Z,20.27
2022-10-18T13:29:25.116Z,20.30
2022-10-18T13:30:52.758Z,20.32
2022-10-18T13:33:41.411Z,20.32
2022-10-18T13:34:42.974Z,20.36
2022-10-18T13:35:56.119Z,20.34
2022-10-18T13:37:01.218Z,20.40
2022-10-18T13:38:02.961Z,20.44
2022-10-18T13:39:05.562Z,20.47
2022-10-18T13:40:24.353Z,20.35
2022-10-18T13:41:42.573Z,20.33
2022-10-18T13:42:50.076Z,20.29
2022-10-18T13:43:54.039Z,20.31
2022-10-18T13:45:33.627Z,20.34
2022-10-18T13:46:35.035Z,20.24
2022-10-18T13:47:39.324Z,20.24
2022-10-18T13:48:40.676Z,20.27
2022-10-18T13:50:17.454Z,20.34
2022-10-18T13:51:30.220Z,20.35
2022-10-18T13:53:01.316Z,20.35
2022-10-18T13:54:30.021Z,20.28
2022-10-18T13:56:16.099Z,20.30
2022-10-18T13:57:22.979Z,20.27
2022-10-18T13:58:53.780Z,20.23
2022-10-18T14:00:48.144Z,20.21
2022-10-18T14:02:12.629Z,20.26
2022-10-18T14:03:55.719Z,20.30
2022-10-18T14:05:25.614Z,20.30
2022-10-18T14:06:41.231Z,20.32
2022-10-18T14:07:44.368Z,20.22
2022-10-18T14:08:53.927Z,20.25
2022-10-18T14:09:59.516Z,20.25
2022-10-18T14:11:18.913Z,20.19
2022-10-18T14:12:26.132Z,20.24
2022-10-18T14:13:38.651Z,20.26
2022-10-18T14:14:47.683Z,20.19
2022-10-18T14:15:58.434Z,20.17
2022-10-18T14:17:36.088Z,20.23
2022-10-18T14:18:42.442Z,20.28
2022-10-18T14:19:54.808Z,20.25
2022-10-18T14:21:13.382Z,20.22
2022-10-18T14:22:28.666Z,20.24
2022-10-18T14:23:39.963Z,20.24
2022-10-18T14:24:46.574Z,20.13
2022-10-18T14:25:48.274Z,20.13
2022-10-18T14:27:16.195Z,20.06
2022-10-18T14:28:31.400Z,20.04
2022-10-18T14:29:43.838Z,19.97
2022-10-18T14:31:03.107Z,19.87
2022-10-18T14:32:09.595Z,19.82
2022-10-18T14:33:43.981Z,19.79
2022-10-18T14:34:45.483Z,19.76
2022-10-18T14:35:59.028Z,19.76
2022-10-18T14:37:00.632Z,19.72
2022-10-18T14:38:02.584Z,19.69
2022-10-18T14:39:06.109Z,19.63
2022-10-18T14:40:27.763Z,19.55